createdAt,value
2022-12-11T05:17:31.745Z,57.85
2022-12-11T05:19:58.295Z,57.81
2022-12-11T05:22:24.762Z,57.40
2022-12-11T05:24:51.226Z,57.83
2022-12-11T05:27:17.732Z,58.12
2022-12-11T05:29:44.227Z,57.80
2022-12-11T05:32:10.739Z,59.79
2022-12-11T05:34:37.224Z,59.48
2022-12-11T05:37:03.681Z,59.13
2022-12-11T05:39:30.294Z,59.45
2022-12-11T05:41:56.761Z,59.04
2022-12-11T05:44:26.233Z,60.16
2022-12-11T05:46:52.985Z,61.54
2022-12-11T05:49:20.229Z,61.96
2022-12-11T05:51:47.448Z,62.53
2022-12-11T05:54:14.461Z,62.77
2022-12-11T05:56:40.905Z,63.48
2022-12-11T05:59:08.214Z,62.23
2022-12-11T06:01:41.552Z,61.69
2022-12-11T06:04:09.666Z,61.03
2022-12-11T06:06:36.759Z,60.58
2022-12-11T06:09:04.336Z,60.99
2022-12-11T06:11:32.798Z,59.96
2022-12-11T06:14:01.028Z,60.94
2022-12-11T06:16:27.610Z,60.14
2022-12-11T06:18:57.976Z,60.37
2022-12-11T06:21:27.836Z,60.08
2022-12-11T06:23:55.584Z,59.96
2022-12-11T06:26:22.435Z,59.18
2022-12-11T06:28:49.733Z,58.91
2022-12-11T06:31:17.483Z,58.87
2022-12-11T06:33:47.750Z,58.94
2022-12-11T06:36:21.773Z,58.48
2022-12-11T06:38:48.901Z,58.38
2022-12-11T06:41:15.937Z,58.49
2022-12-11T06:43:42.960Z,58.77
2022-12-11T06:46:16.083Z,58.90
2022-12-11T06:48:43.512Z,58.68
2022-12-11T06:51:15.704Z,57.94
2022-12-11T06:53:42.697Z,59.21
2022-12-11T06:56:12.287Z,60.17
2022-12-11T06:58:39.677Z,59.16
2022-12-11T07:01:24.781Z,59.41
2022-12-11T07:04:00.559Z,60.37
2022-12-11T07:06:28.591Z,60.62
2022-12-11T07:08:55.661Z,61.30
2022-12-11T07:11:25.899Z,61.26
2022-12-11T07:13:52.344Z,61.38
2022-12-11T07:16:19.391Z,62.83
2022-12-11T07:18:50.457Z,62.18
2022-12-11T07:21:18.132Z,62.95
2022-12-11T07:23:44.635Z,62.81
2022-12-11T07:26:14.842Z,62.71
2022-12-11T07:28:42.559Z,62.16
2022-12-11T07:31:14.652Z,62.43
2022-12-11T07:33:42.325Z,62.64
2022-12-11T07:36:11.566Z,62.13
2022-12-11T07:38:38.781Z,62.07
2022-12-11T07:41:08.107Z,61.96
2022-12-11T07:43:35.564Z,63.32
2022-12-11T07:46:04.925Z,64.00
2022-12-11T07:48:34.774Z,62.31
2022-12-11T07:51:12.344Z,62.13
2022-12-11T07:53:38.907Z,62.00
2022-12-11T07:56:05.791Z,61.58
2022-12-11T07:58:36.058Z,63.20
2022-12-11T08:01:02.683Z,63.98
2022-12-11T08:03:29.272Z,63.72
2022-12-11T08:05:56.030Z,64.29
2022-12-11T08:08:23.214Z,64.06
2022-12-11T08:10:49.928Z,64.06
2022-12-11T08:13:16.453Z,64.31
2022-12-11T08:15:42.937Z,63.32
2022-12-11T08:18:09.419Z,62.95
2022-12-11T08:20:38.396Z,62.59
2022-12-11T08:23:05.493Z,61.84
2022-12-11T08:25:32.025Z,62.66
2022-12-11T08:27:58.536Z,62.80
2022-12-11T08:30:25.108Z,64.40
2022-12-11T08:32:51.694Z,64.22
2022-12-11T08:35:18.259Z,63.17
2022-12-11T08:37:44.704Z,63.67
2022-12-11T08:40:12.297Z,62.60
2022-12-11T08:42:38.801Z,62.08
2022-12-11T08:45:06.107Z,62.49
2022-12-11T08:47:32.610Z,61.19
2022-12-11T08:49:59.076Z,63.68
2022-12-11T08:52:25.633Z,63.28
2022-12-11T08:54:52.102Z,62.67
2022-12-11T08:57:18.626Z,62.62
2022-12-11T08:59:45.063Z,63.20
2022-12-11T09:02:12.824Z,62.88
2022-12-11T09:04:39.431Z,63.20
2022-12-11T09:07:05.892Z,64.12
2022-12-11T09:09:32.434Z,63.91
2022-12-11T09:11:59.345Z,63.36
2022-12-11T09:14:25.813Z,63.96
2022-12-11T09:16:52.244Z,62.87
2022-12-11T09:19:18.993Z,63.27
2022-12-11T09:21:45.522Z,63.44
2022-12-11T09:24:13.188Z,63.66
2022-12-11T09:26:40.012Z,62.36
2022-12-11T09:29:08.813Z,62.76
2022-12-11T09:31:37.041Z,62.22
2022-12-11T09:34:11.430Z,61.25
2022-12-11T09:36:42.618Z,62.19
2022-12-11T09:39:10.840Z,62.45
2022-12-11T09:41:47.746Z,61.41
2022-12-11T09:44:30.124Z,61.69
2022-12-11T09:47:15.293Z,62.10
2022-12-11T09:49:44.563Z,62.14
2022-12-11T09:52:20.165Z,60.55
2022-12-11T09:54:52.584Z,61.45
2022-12-11T09:57:38.401Z,60.09
2022-12-11T10:00:11.388Z,59.28
2022-12-11T10:02:50.179Z,59.28
2022-12-11T10:05:27.006Z,59.42
2022-12-11T10:08:05.553Z,61.23
2022-12-11T10:11:00.506Z,61.83
2022-12-11T10:13:42.522Z,60.75
2022-12-11T10:16:34.567Z,61.05
2022-12-11T10:19:01.379Z,60.60
2022-12-11T10:21:39.900Z,60.33
2022-12-11T10:24:34.658Z,60.32
2022-12-11T10:27:19.234Z,59.99
2022-12-11T10:29:47.622Z,59.50
2022-12-11T10:32:24.494Z,59.31
2022-12-11T10:35:05.503Z,59.59
2022-12-11T10:37:32.041Z,59.19
2022-12-11T10:39:58.639Z,58.99
2022-12-11T10:42:25.238Z,59.10
2022-12-11T10:45:03.578Z,59.80
2022-12-11T10:47:30.179Z,59.59
2022-12-11T10:49:59.492Z,60.05
2022-12-11T10:52:31.857Z,59.36
2022-12-11T10:55:38.239Z,59.21
2022-12-11T10:58:06.502Z,58.56
2022-12-11T11:00:37.540Z,58.14
2022-12-11T11:03:22.411Z,58.04
2022-12-11T11:05:50.790Z,57.87
2022-12-11T11:08:25.234Z,56.86
2022-12-11T11:11:00.659Z,57.40
2022-12-11T11:13:31.502Z,57.08
2022-12-11T11:16:01.371Z,57.19
2022-12-11T11:18:30.399Z,57.07
2022-12-11T11:20:57.468Z,56.93
2022-12-11T11:23:25.587Z,57.51
2022-12-11T11:25:55.565Z,57.84
2022-12-11T11:28:26.462Z,57.28
2022-12-11T11:30:58.447Z,56.82
2022-12-11T11:33:25.468Z,57.16
2022-12-11T11:35:54.902Z,56.96
2022-12-11T11:38:24.507Z,56.83
2022-12-11T11:41:21.293Z,55.66
2022-12-11T11:43:55.565Z,56.22
2022-12-11T11:46:27.935Z,55.99
2022-12-11T11:49:12.919Z,56.87
2022-12-11T11:52:01.004Z,55.87
2022-12-11T11:54:37.376Z,56.76
2022-12-11T11:57:43.658Z,56.54
2022-12-11T12:00:30.375Z,56.24
2022-12-11T12:03:05.972Z,56.26
2022-12-11T12:06:04.441Z,56.44
2022-12-11T12:08:51.907Z,56.04
2022-12-11T12:11:28.196Z,56.25
2022-12-11T12:14:51.719Z,56.94
2022-12-11T12:17:43.309Z,55.91
2022-12-11T12:20:34.783Z,55.65
2022-12-11T12:23:25.619Z,56.42
2022-12-11T12:26:25.532Z,55.89
2022-12-11T12:29:06.461Z,56.09
2022-12-11T12:32:05.760Z,56.14
2022-12-11T12:34:41.317Z,56.07
2022-12-11T12:37:35.274Z,56.19
2022-12-11T12:40:16.949Z,55.75
2022-12-11T12:43:01.771Z,54.89
2022-12-11T12:46:13.434Z,54.78
2022-12-11T12:48:40.023Z,55.82
2022-12-11T12:51:06.939Z,55.08
2022-12-11T12:53:36.812Z,55.14
2022-12-11T12:56:05.766Z,54.80
2022-12-11T12:58:35.517Z,54.69
2022-12-11T13:01:27.297Z,54.65
2022-12-11T13:04:05.968Z,54.93
2022-12-11T13:06:44.223Z,54.88
2022-12-11T13:09:21.123Z,54.03
2022-12-11T13:11:59.010Z,54.02
2022-12-11T13:14:31.039Z,54.03
2022-12-11T13:17:22.486Z,53.94
2022-12-11T13:19:53.059Z,54.23
2022-12-11T13:22:24.227Z,54.20
2022-12-11T13:25:01.722Z,53.53
2022-12-11T13:27:44.624Z,53.84
2022-12-11T13:30:14.344Z,53.46
2022-12-11T13:32:55.464Z,54.09
2022-12-11T13:35:22.030Z,53.68
2022-12-11T13:37:51.021Z,53.72
2022-12-11T13:40:22.804Z,53.39
2022-12-11T13:42:51.904Z,53.39
2022-12-11T13:45:52.079Z,52.83
2022-12-11T13:48:53.949Z,53.33
2022-12-11T13:51:22.875Z,52.87
2022-12-11T13:53:49.917Z,52.18
2022-12-11T13:56:20.249Z,53.10
2022-12-11T13:58:48.095Z,52.93
2022-12-11T14:01:23.812Z,53.67
2022-12-11T14:04:15.295Z,52.96
2022-12-11T14:06:42.350Z,53.11
2022-12-11T14:09:09.338Z,53.30
2022-12-11T14:11:43.282Z,52.50
2022-12-11T14:14:40.192Z,53.44
2022-12-11T14:17:13.980Z,53.38
2022-12-11T14:19:47.145Z,53.15
2022-12-11T14:22:20.465Z,53.06
2022-12-11T14:24:58.896Z,53.47
2022-12-11T14:27:26.937Z,53.32
2022-12-11T14:29:53.840Z,53.23
2022-12-11T14:32:44.715Z,52.96
2022-12-11T14:35:24.279Z,52.71
2022-12-11T14:37:58.711Z,52.39
2022-12-11T14:40:30.502Z,52.61
2022-12-11T14:43:02.128Z,52.93
2022-12-11T14:45:39.507Z,52.66
2022-12-11T14:48:17.001Z,52.61
2022-12-11T14:50:53.062Z,52.72
2022-12-11T14:53:33.904Z,52.60
2022-12-11T14:56:05.514Z,52.83
2022-12-11T14:58:38.123Z,52.47
2022-12-11T15:01:26.646Z,53.26
2022-12-11T15:04:15.322Z,53.62
2022-12-11T15:06:47.052Z,53.22
2022-12-11T15:09:19.326Z,52.94
2022-12-11T15:11:47.273Z,53.05
2022-12-11T15:14:16.283Z,53.32
2022-12-11T15:16:43.184Z,53.36
2022-12-11T15:19:20.342Z,53.74
2022-12-11T15:21:47.612Z,54.12
2022-12-11T15:24:30.496Z,53.54
2022-12-11T15:26:59.743Z,54.24
2022-12-11T15:29:38.267Z,53.99
2022-12-11T15:32:18.971Z,54.14
2022-12-11T15:34:52.990Z,54.23
2022-12-11T15:37:36.128Z,54.36
2022-12-11T15:40:04.705Z,54.81
2022-12-11T15:42:34.319Z,54.30
2022-12-11T15:45:01.458Z,54.38
2022-12-11T15:47:30.540Z,54.51
2022-12-11T15:50:00.022Z,54.99
2022-12-11T15:52:26.565Z,54.69
2022-12-11T15:54:54.225Z,54.65
2022-12-11T15:57:24.051Z,54.55
2022-12-11T15:59:54.838Z,54.40
2022-12-11T16:02:21.550Z,56.67
2022-12-11T16:04:48.031Z,56.30
2022-12-11T16:07:33.535Z,55.63
2022-12-11T16:10:00.059Z,55.82
2022-12-11T16:12:26.595Z,54.95
2022-12-11T16:14:53.124Z,55.24
2022-12-11T16:17:19.884Z,54.86
2022-12-11T16:19:46.346Z,55.11
2022-12-11T16:22:14.107Z,55.82
2022-12-11T16:24:41.204Z,55.73
2022-12-11T16:27:12.161Z,56.04
2022-12-11T16:29:43.386Z,55.96
2022-12-11T16:32:10.281Z,55.91
2022-12-11T16:34:38.070Z,55.32
2022-12-11T16:37:06.800Z,55.31
2022-12-11T16:39:34.525Z,55.92
2022-12-11T16:42:01.046Z,54.94
2022-12-11T16:44:27.520Z,55.62
2022-12-11T16:46:54.492Z,55.58
2022-12-11T16:49:21.881Z,55.48
2022-12-11T16:51:51.263Z,55.71
2022-12-11T16:54:21.342Z,55.58
2022-12-11T16:56:51.340Z,54.84
2022-12-11T16:59:18.060Z,56.03
2022-12-11T17:01:45.103Z,55.47
2022-12-11T17:04:11.724Z,55.66
2022-12-11T17:06:38.212Z,55.75
2022-12-11T17:09:04.797Z,55.30
2022-12-11T17:11:31.308Z,55.39
2022-12-11T17:13:59.495Z,55.51
2022-12-11T17:16:30.239Z,54.72
2022-12-11T17:18:57.589Z,55.22
2022-12-11T17:21:24.358Z,54.82
2022-12-11T17:23:51.474Z,55.12
2022-12-11T17:26:28.721Z,54.80
2022-12-11T17:28:57.021Z,54.97
2022-12-11T17:31:24.072Z,55.35
2022-12-11T17:33:51.623Z,55.82
2022-12-11T17:36:20.895Z,55.88
2022-12-11T17:38:48.684Z,56.05
2022-12-11T17:41:20.445Z,56.30
2022-12-11T17:43:48.726Z,56.72
2022-12-11T17:46:15.395Z,56.10
2022-12-11T17:48:42.020Z,55.87
2022-12-11T17:51:13.511Z,56.10
2022-12-11T17:54:31.669Z,55.41
2022-12-11T17:57:09.574Z,58.03
2022-12-11T17:59:39.338Z,57.28
2022-12-11T18:02:08.847Z,57.62
2022-12-11T18:04:49.754Z,58.27
2022-12-11T18:08:02.676Z,58.02
2022-12-11T18:10:40.531Z,57.87
2022-12-11T18:13:07.517Z,58.98
2022-12-11T18:15:49.923Z,59.56
2022-12-11T18:18:16.619Z,60.56
2022-12-11T18:21:55.533Z,60.82
2022-12-11T18:24:31.626Z,59.86
2022-12-11T18:27:12.252Z,59.00
2022-12-11T18:29:39.439Z,58.62
2022-12-11T18:32:06.555Z,58.19
2022-12-11T18:34:35.893Z,57.86
2022-12-11T18:37:02.523Z,58.29
2022-12-11T18:39:29.300Z,59.68
2022-12-11T18:42:30.698Z,59.85
2022-12-11T18:44:46.956Z,59.07
2022-12-11T18:47:13.638Z,59.67
2022-12-11T18:49:42.376Z,59.28
2022-12-11T18:52:09.351Z,59.38
2022-12-11T18:55:01.269Z,58.79
2022-12-11T18:57:30.853Z,59.28
2022-12-11T19:00:02.417Z,59.45
2022-12-11T19:02:29.130Z,59.06
2022-12-11T19:04:58.606Z,59.43
2022-12-11T19:07:25.459Z,60.83
2022-12-11T19:10:19.095Z,61.57
2022-12-11T19:12:45.846Z,61.40
2022-12-11T19:15:13.035Z,60.43
2022-12-11T19:17:40.000Z,59.55
2022-12-11T19:20:32.253Z,59.47
2022-12-11T19:22:56.317Z,60.63
2022-12-11T19:25:23.281Z,60.40
2022-12-11T19:27:51.125Z,59.98
2022-12-11T19:30:18.212Z,60.10
2022-12-11T19:32:46.786Z,60.01
2022-12-11T19:35:15.090Z,60.81
2022-12-11T19:37:42.626Z,60.82
2022-12-11T19:40:10.416Z,60.72
2022-12-11T19:42:36.937Z,61.07
2022-12-11T19:45:06.164Z,61.36
2022-12-11T19:47:36.255Z,61.42
2022-12-11T19:50:03.925Z,60.77
2022-12-11T19:52:30.878Z,60.38
2022-12-11T19:55:02.071Z,60.27
2022-12-11T19:57:28.965Z,59.91
2022-12-11T19:59:57.467Z,60.87
2022-12-11T20:02:24.512Z,60.84
2022-12-11T20:04:51.307Z,59.65
2022-12-11T20:07:18.172Z,59.70
2022-12-11T20:09:45.288Z,59.94
2022-12-11T20:12:12.561Z,60.53
2022-12-11T20:14:39.327Z,58.98
2022-12-11T20:17:12.341Z,58.48
2022-12-11T20:19:39.896Z,58.67
2022-12-11T20:22:06.560Z,59.23
2022-12-11T20:24:33.511Z,58.64
2022-12-11T20:27:00.179Z,58.35
2022-12-11T20:29:28.159Z,58.62
2022-12-11T20:31:55.011Z,58.60
2022-12-11T20:34:21.913Z,57.50
2022-12-11T20:36:48.900Z,58.47
2022-12-11T20:39:15.978Z,58.93
2022-12-11T20:41:43.208Z,58.42
2022-12-11T20:44:10.001Z,59.47
2022-12-11T20:46:36.702Z,59.53
2022-12-11T20:49:03.454Z,59.08
2022-12-11T20:51:31.498Z,59.89
2022-12-11T20:53:59.837Z,60.32
2022-12-11T20:56:31.569Z,60.05
2022-12-11T20:59:00.135Z,59.29
2022-12-11T21:01:31.879Z,59.95
2022-12-11T21:03:59.762Z,60.06
2022-12-11T21:06:31.587Z,59.35
2022-12-11T21:09:00.717Z,60.39
2022-12-11T21:11:28.296Z,60.36
2022-12-11T21:13:55.453Z,59.34
2022-12-11T21:16:22.994Z,59.04
2022-12-11T21:18:49.727Z,59.04
2022-12-11T21:21:17.040Z,61.00
2022-12-11T21:23:44.363Z,60.59
2022-12-11T21:26:11.760Z,61.07
2022-12-11T21:28:38.652Z,60.52
2022-12-11T21:31:09.115Z,60.52
2022-12-11T21:33:36.365Z,60.61
2022-12-11T21:36:08.770Z,60.30
2022-12-11T21:38:36.145Z,60.94
2022-12-11T21:41:11.606Z,61.65
2022-12-11T21:43:54.587Z,62.43
2022-12-11T21:46:27.999Z,62.60
2022-12-11T21:48:54.804Z,61.68
2022-12-11T21:51:36.152Z,61.84
2022-12-11T21:54:06.605Z,62.33
2022-12-11T21:56:34.284Z,61.55
2022-12-11T21:59:01.760Z,62.42
2022-12-11T22:01:33.416Z,62.27
2022-12-11T22:04:15.181Z,62.13
2022-12-11T22:06:47.132Z,62.91
2022-12-11T22:09:19.207Z,61.93
2022-12-11T22:11:47.223Z,61.84
2022-12-11T22:14:16.955Z,63.10
2022-12-11T22:16:45.519Z,63.53
2022-12-11T22:19:12.448Z,63.81
2022-12-11T22:21:39.100Z,64.46
2022-12-11T22:24:05.909Z,64.52
2022-12-11T22:26:32.496Z,63.54
2022-12-11T22:28:59.166Z,64.23
2022-12-11T22:31:26.671Z,63.33
2022-12-11T22:33:53.921Z,63.82
2022-12-11T22:36:22.075Z,62.77
2022-12-11T22:38:48.925Z,63.62
2022-12-11T22:41:24.311Z,62.46
2022-12-11T22:43:51.284Z,63.51
2022-12-11T22:46:20.884Z,63.44
2022-12-11T22:48:51.646Z,63.10
2022-12-11T22:51:18.368Z,62.56
2022-12-11T22:53:45.332Z,62.90
2022-12-11T22:56:14.004Z,63.58
2022-12-11T22:58:40.797Z,62.19
